• Join FlightAware (Why Join?)
  • Login
  • US Flag 
Gobble Gobble! 
01:11AM EST


 

Airport Tracker/Info


-or-


 

Live Flight TrackerFlight Track Log ✈ ASQ4577 ✈ 04-Jun-2013 ✈ KCLE - KALB

Flight Track Log - Related Links

Times and Time Zones

All times are in EDT time to prevent confusion due to time zone crossing. See the ASQ4577 flight status page for this flight to view local times or setup timezone preferences in your user account.

Time Position Orientation Groundspeed Altitude Reporting Facility
EDT Latitude Longitude Course Direction KTS MPH feet Rate Location/Type
08:04PM 41.4214 -81.8403 26° Northeast 160 184 1,800  Level Cleveland Center
08:06PM 41.4969 -81.7919 26° Northeast 252 290 4,300 1,980 Climbing Cleveland Center
08:06PM 41.5433 -81.7622 26° Northeast 246 283 5,700 2,340 Climbing Cleveland Center
08:07PM 41.5622 -81.7486 28° Northeast 261 300 6,700 2,400 Climbing Cleveland Center
08:07PM 41.6042 -81.7217 26° Northeast 266 306 8,100 2,160 Climbing Cleveland Center
08:08PM 41.6653 -81.6589 37° Northeast 279 321 10,300 1,800 Climbing Cleveland Center
08:09PM 41.7242 -81.5764 46° Northeast 290 334 11,800 1,200 Climbing Cleveland Center
08:10PM 41.7897 -81.4856 46° Northeast 318 366 12,800 1,080 Climbing Cleveland Center
08:11PM 41.8447 -81.3719 57° Northeast 350 403 14,000 1,200 Climbing Cleveland Center
08:12PM 41.8686 -81.2272 77° East 375 432 15,200 1,080 Climbing Cleveland Center
08:13PM 41.8881 -81.0992 78° East 384 442 16,200 1,140 Climbing Cleveland Center
08:14PM 41.9136 -80.9514 77° East 395 455 17,500 1,140 Climbing Cleveland Center
08:15PM 41.9347 -80.8036 79° East 400 460 18,500 1,080 Climbing Cleveland Center
08:16PM 41.9578 -80.6475 79° East 415 478 19,700 1,200 Climbing Cleveland Center
08:17PM 41.9808 -80.4939 79° East 415 478 20,900 1,200 Climbing Cleveland Center
08:18PM 42.0033 -80.3233 80° East 420 483 22,200 1,200 Climbing Cleveland Center
08:19PM 42.0258 -80.1611 79° East 425 489 23,400 1,200 Climbing Cleveland Center
08:20PM 42.0503 -80.0044 78° East 433 498 24,600 1,140 Climbing Cleveland Center
08:21PM 42.0725 -79.8644 78° East 427 491 25,700 1,140 Climbing Cleveland Center
08:22PM 42.0922 -79.7017 81° East 433 498 26,900 1,200 Climbing Cleveland Center
08:23PM 42.1158 -79.5447 78° East 433 498 28,100 1,200 Climbing Cleveland Center
08:24PM 42.1372 -79.3875 80° East 427 491 29,300 1,200 Climbing Cleveland Center
08:25PM 42.1564 -79.2275 81° East 427 491 30,500 840 Climbing Cleveland Center
08:26PM 42.1794 -79.0703 79° East 427 491 31,000 240 Climbing Cleveland Center
08:27PM 42.2039 -78.8817 80° East 438 504 31,000  Level Cleveland Center
08:28PM 42.2281 -78.7017 80° East 466 536 31,000  Level Cleveland Center
08:29PM 42.2519 -78.5131 80° East 488 562 31,000  Level Cleveland Center
08:30PM 42.2756 -78.3269 80° East 499 574 31,000  Level Cleveland Center
08:31PM 42.2989 -78.1408 80° East 499 574 31,000  Level Cleveland Center
08:32PM 42.3219 -77.9547 80° East 504 580 31,000  Level Cleveland Center
08:34PM 42.3614 -77.6169 81° East 521 600 31,000  Level Boston Center
08:35PM 42.3794 -77.4469 82° East 516 594 31,000  Level Boston Center
08:36PM 42.4022 -77.2603 81° East 511 588 31,000  Level Boston Center
08:37PM 42.4247 -77.0706 81° East 506 582 31,000 -480 Level Boston Center
08:38PM 42.4467 -76.8864 81° East 506 582 30,100 -960 Descending Boston Center
08:39PM 42.4661 -76.7047 82° East 496 571 29,100 -600 Descending Boston Center
08:40PM 42.4875 -76.5203 81° East 491 565 29,000 -240 Descending Boston Center
08:41PM 42.5064 -76.3383 82° East 491 565 28,700 -900 Descending Boston Center
08:42PM 42.5272 -76.1508 81° East 491 565 27,200 -1,500 Descending Boston Center
08:43PM 42.5481 -75.9603 81° East 501 577 25,700 -1,500 Descending Boston Center
08:44PM 42.5664 -75.7697 82° East 512 589 24,200 -1,500 Descending Boston Center
08:45PM 42.5839 -75.5872 83° East 502 578 22,700 -1,740 Descending Boston Center
08:46PM 42.6042 -75.3739 83° East 480 552 20,500 -2,100 Descending Boston Center
08:47PM 42.6236 -75.1800 82° East 480 552 18,100 -2,220 Descending Boston Center
08:48PM 42.6400 -75.0142 82° East 460 529 16,100 -2,100 Descending Boston Center
08:49PM 42.6561 -74.8539 82° East 439 505 13,900 -2,280 Descending Boston Center
08:50PM 42.6669 -74.7414 83° East 401 461 12,000 -1,680 Descending Boston Center
08:51PM 42.6800 -74.6036 83° East 390 449 11,100 -780 Descending Boston Center
08:51PM 42.6806 -74.5725 89° East 399 459 11,100 -300 Level Boston Center
08:52PM 42.6806 -74.4594 90° East 380 437 10,800 -540 Descending Boston Center
08:52PM 42.6792 -74.4169 93° East 372 428 10,600 -900 Descending Boston Center
08:53PM 42.6703 -74.3292 98° East 299 344 9,900 -900 Descending Boston Center
08:53PM 42.6725 -74.3122 80° East 331 381 9,700 -1,620 Descending Boston Center
08:54PM 42.6636 -74.2189 97° East 289 333 8,300 -1,800 Descending Boston Center
08:54PM 42.6619 -74.1933 95° East 294 338 7,900 -1,800 Descending Boston Center
08:55PM 42.6528 -74.1114 99° East 281 323 6,500 -1,620 Descending Boston Center
08:55PM 42.6531 -74.0972 88° East 288 331 6,300 -1,380 Descending Boston Center
08:56PM 42.6481 -74.0125 95° East 264 304 5,100 -1,320 Descending Boston Center
08:57PM 42.6389 -73.9161 97° East 256 295 4,000 -840 Descending Boston Center
08:58PM 42.6419 -73.8286 87° East 227 261 3,500 -840 Descending Boston Center
08:59PM 42.6492 -73.7414 84° East 204 235 2,400 -720 Descending Boston Center
09:00PM 42.6894 -73.7000 37° Northeast 174 200 2,100 -420 Descending Boston Center
09:01PM 42.7289 -73.7006 359° North 117 135 1,600 -540 Descending Boston Center